sensor_id;sensor_type;location;lat;lon;timestamp;pressure;altitude;pressure_sealevel;temperature;humidity
15932;BME280;8065;49.520;11.284;2023-02-08T00:00:59;99594.75;;;0.89;62.83
15932;BME280;8065;49.520;11.284;2023-02-08T00:03:26;99594.16;;;0.80;62.31
15932;BME280;8065;49.520;11.284;2023-02-08T00:05:54;99588.94;;;0.80;62.73
15932;BME280;8065;49.520;11.284;2023-02-08T00:08:21;99592.16;;;0.56;62.97
15932;BME280;8065;49.520;11.284;2023-02-08T00:10:48;99585.50;;;0.67;62.93
15932;BME280;8065;49.520;11.284;2023-02-08T00:13:14;99588.94;;;0.54;62.93
15932;BME280;8065;49.520;11.284;2023-02-08T00:15:41;99593.56;;;0.52;62.90
15932;BME280;8065;49.520;11.284;2023-02-08T00:18:08;99584.91;;;0.58;62.79
15932;BME280;8065;49.520;11.284;2023-02-08T00:20:37;99586.13;;;0.69;62.99
15932;BME280;8065;49.520;11.284;2023-02-08T00:23:05;99588.72;;;0.75;63.03
15932;BME280;8065;49.520;11.284;2023-02-08T00:25:31;99592.56;;;0.79;63.08
15932;BME280;8065;49.520;11.284;2023-02-08T00:27:58;99588.53;;;0.77;62.37
15932;BME280;8065;49.520;11.284;2023-02-08T00:30:25;99585.72;;;0.78;62.54
15932;BME280;8065;49.520;11.284;2023-02-08T00:32:51;99590.94;;;0.78;62.71
15932;BME280;8065;49.520;11.284;2023-02-08T00:35:18;99592.16;;;0.82;62.27
15932;BME280;8065;49.520;11.284;2023-02-08T00:37:44;99585.31;;;0.68;62.62
15932;BME280;8065;49.520;11.284;2023-02-08T00:40:12;99582.28;;;0.64;62.86
15932;BME280;8065;49.520;11.284;2023-02-08T00:42:38;99584.91;;;0.71;62.49
15932;BME280;8065;49.520;11.284;2023-02-08T00:45:05;99589.34;;;0.77;61.97
15932;BME280;8065;49.520;11.284;2023-02-08T00:47:32;99593.16;;;0.81;62.31
15932;BME280;8065;49.520;11.284;2023-02-08T00:49:58;99586.53;;;0.85;61.32
15932;BME280;8065;49.520;11.284;2023-02-08T00:52:25;99588.34;;;0.78;61.97
15932;BME280;8065;49.520;11.284;2023-02-08T00:54:52;99591.75;;;0.85;61.98
15932;BME280;8065;49.520;11.284;2023-02-08T00:57:20;99594.16;;;0.54;62.27
15932;BME280;8065;49.520;11.284;2023-02-08T00:59:47;99594.16;;;0.67;62.11
15932;BME280;8065;49.520;11.284;2023-02-08T01:02:13;99594.78;;;0.69;61.84
15932;BME280;8065;49.520;11.284;2023-02-08T01:04:40;99596.56;;;0.62;62.22
15932;BME280;8065;49.520;11.284;2023-02-08T01:07:06;99598.38;;;0.48;61.98
15932;BME280;8065;49.520;11.284;2023-02-08T01:09:33;99599.16;;;0.42;62.14
15932;BME280;8065;49.520;11.284;2023-02-08T01:12:00;99606.97;;;0.16;62.63
15932;BME280;8065;49.520;11.284;2023-02-08T01:14:28;99596.06;;;-0.08;63.35
15932;BME280;8065;49.520;11.284;2023-02-08T01:16:55;99603.72;;;0.07;63.08
15932;BME280;8065;49.520;11.284;2023-02-08T01:19:21;99611.56;;;0.07;62.89
15932;BME280;8065;49.520;11.284;2023-02-08T01:21:47;99609.31;;;-0.09;63.12
15932;BME280;8065;49.520;11.284;2023-02-08T01:24:14;99605.94;;;-0.03;63.29
15932;BME280;8065;49.520;11.284;2023-02-08T01:26:41;99600.47;;;-0.08;63.29
15932;BME280;8065;49.520;11.284;2023-02-08T01:29:07;99602.84;;;-0.20;63.84
15932;BME280;8065;49.520;11.284;2023-02-08T01:31:37;99604.09;;;-0.09;63.68
15932;BME280;8065;49.520;11.284;2023-02-08T01:34:04;99598.91;;;-0.03;63.49
15932;BME280;8065;49.520;11.284;2023-02-08T01:36:31;99594.00;;;-0.19;63.99
15932;BME280;8065;49.520;11.284;2023-02-08T01:38:58;99601.19;;;-0.34;63.91
15932;BME280;8065;49.520;11.284;2023-02-08T01:41:27;99597.19;;;-0.30;63.93
15932;BME280;8065;49.520;11.284;2023-02-08T01:44:05;99586.63;;;-0.02;63.38
15932;BME280;8065;49.520;11.284;2023-02-08T01:46:34;99587.63;;;0.04;63.05
15932;BME280;8065;49.520;11.284;2023-02-08T01:49:05;99587.25;;;0.00;63.09
15932;BME280;8065;49.520;11.284;2023-02-08T01:51:36;99592.03;;;0.03;63.32
15932;BME280;8065;49.520;11.284;2023-02-08T01:54:06;99585.97;;;-0.17;63.70
15932;BME280;8065;49.520;11.284;2023-02-08T01:56:35;99586.41;;;-0.07;63.22
15932;BME280;8065;49.520;11.284;2023-02-08T01:59:05;99589.44;;;-0.04;63.08
15932;BME280;8065;49.520;11.284;2023-02-08T02:01:33;99593.06;;;0.02;62.86
15932;BME280;8065;49.520;11.284;2023-02-08T02:04:02;99580.41;;;0.12;62.95
15932;BME280;8065;49.520;11.284;2023-02-08T02:06:32;99589.66;;;0.08;62.92
15932;BME280;8065;49.520;11.284;2023-02-08T02:09:06;99589.03;;;0.06;62.81
15932;BME280;8065;49.520;11.284;2023-02-08T02:11:35;99580.81;;;0.09;62.73
15932;BME280;8065;49.520;11.284;2023-02-08T02:14:03;99591.66;;;-0.07;63.20
15932;BME280;8065;49.520;11.284;2023-02-08T02:16:29;99590.59;;;-0.19;63.68
15932;BME280;8065;49.520;11.284;2023-02-08T02:18:56;99580.75;;;-0.17;63.73
15932;BME280;8065;49.520;11.284;2023-02-08T02:21:38;99579.53;;;-0.21;63.48
15932;BME280;8065;49.520;11.284;2023-02-08T02:24:36;99571.91;;;-0.16;63.39
15932;BME280;8065;49.520;11.284;2023-02-08T02:27:24;99578.81;;;-0.50;64.94
15932;BME280;8065;49.520;11.284;2023-02-08T02:30:19;99581.09;;;-0.34;64.33
15932;BME280;8065;49.520;11.284;2023-02-08T02:35:47;99585.50;;;-0.41;64.61
15932;BME280;8065;49.520;11.284;2023-02-08T02:38:23;99584.25;;;-0.45;64.55
15932;BME280;8065;49.520;11.284;2023-02-08T02:40:59;99585.09;;;-0.38;64.78
15932;BME280;8065;49.520;11.284;2023-02-08T02:43:32;99583.28;;;-0.37;64.72
15932;BME280;8065;49.520;11.284;2023-02-08T02:46:14;99570.69;;;-0.20;64.12
15932;BME280;8065;49.520;11.284;2023-02-08T02:48:47;99577.16;;;-0.10;63.88
15932;BME280;8065;49.520;11.284;2023-02-08T02:51:20;99587.16;;;-0.26;63.96
15932;BME280;8065;49.520;11.284;2023-02-08T02:53:54;99579.44;;;-0.48;64.46
15932;BME280;8065;49.520;11.284;2023-02-08T02:56:24;99582.81;;;-0.54;64.54
15932;BME280;8065;49.520;11.284;2023-02-08T02:58:55;99586.56;;;-0.63;64.97
15932;BME280;8065;49.520;11.284;2023-02-08T03:01:22;99576.44;;;-0.79;65.32
15932;BME280;8065;49.520;11.284;2023-02-08T03:03:51;99571.06;;;-0.71;65.22
15932;BME280;8065;49.520;11.284;2023-02-08T03:06:23;99579.78;;;-0.57;65.35
15932;BME280;8065;49.520;11.284;2023-02-08T03:12:22;99575.03;;;-0.41;64.61
15932;BME280;8065;49.520;11.284;2023-02-08T03:14:57;99577.09;;;-0.29;63.92
15932;BME280;8065;49.520;11.284;2023-02-08T03:17:46;99578.31;;;-0.25;63.80
15932;BME280;8065;49.520;11.284;2023-02-08T03:20:21;99574.69;;;-0.31;64.21
15932;BME280;8065;49.520;11.284;2023-02-08T03:22:57;99571.47;;;-0.26;64.07
15932;BME280;8065;49.520;11.284;2023-02-08T03:25:33;99570.66;;;-0.34;64.00
15932;BME280;8065;49.520;11.284;2023-02-08T03:28:04;99568.75;;;-0.53;64.46
15932;BME280;8065;49.520;11.284;2023-02-08T03:30:39;99571.69;;;-0.69;64.60
15932;BME280;8065;49.520;11.284;2023-02-08T03:33:13;99568.47;;;-0.71;65.00
15932;BME280;8065;49.520;11.284;2023-02-08T03:35:48;99566.78;;;-0.85;65.63
15932;BME280;8065;49.520;11.284;2023-02-08T03:38:21;99579.44;;;-0.89;65.42
15932;BME280;8065;49.520;11.284;2023-02-08T03:40:51;99571.22;;;-0.79;65.44
15932;BME280;8065;49.520;11.284;2023-02-08T03:43:21;99576.63;;;-0.87;66.17
15932;BME280;8065;49.520;11.284;2023-02-08T03:45:51;99574.41;;;-0.84;65.66
15932;BME280;8065;49.520;11.284;2023-02-08T03:48:21;99572.47;;;-0.75;65.76
15932;BME280;8065;49.520;11.284;2023-02-08T03:50:52;99576.59;;;-1.22;66.72
15932;BME280;8065;49.520;11.284;2023-02-08T03:53:21;99575.06;;;-1.10;67.00
15932;BME280;8065;49.520;11.284;2023-02-08T03:55:52;99571.72;;;-1.32;67.69
15932;BME280;8065;49.520;11.284;2023-02-08T03:58:22;99572.91;;;-1.55;68.69
15932;BME280;8065;49.520;11.284;2023-02-08T04:00:54;99568.81;;;-1.43;67.73
15932;BME280;8065;49.520;11.284;2023-02-08T04:03:23;99562.91;;;-1.52;68.15
15932;BME280;8065;49.520;11.284;2023-02-08T04:05:53;99569.19;;;-1.46;67.77
15932;BME280;8065;49.520;11.284;2023-02-08T04:08:20;99569.00;;;-1.45;68.19
15932;BME280;8065;49.520;11.284;2023-02-08T04:10:47;99567.19;;;-1.44;67.47
15932;BME280;8065;49.520;11.284;2023-02-08T04:13:14;99564.22;;;-1.41;67.65
15932;BME280;8065;49.520;11.284;2023-02-08T04:15:40;99562.47;;;-1.34;67.33
15932;BME280;8065;49.520;11.284;2023-02-08T04:18:08;99561.31;;;-1.25;67.10
15932;BME280;8065;49.520;11.284;2023-02-08T04:20:35;99567.44;;;-1.39;67.78
15932;BME280;8065;49.520;11.284;2023-02-08T04:23:02;99562.47;;;-1.34;67.30
15932;BME280;8065;49.520;11.284;2023-02-08T04:25:29;99565.69;;;-1.32;67.47
15932;BME280;8065;49.520;11.284;2023-02-08T04:27:55;99566.94;;;-1.49;68.34
15932;BME280;8065;49.520;11.284;2023-02-08T04:30:22;99568.19;;;-1.67;68.92
15932;BME280;8065;49.520;11.284;2023-02-08T04:32:48;99573.66;;;-1.61;69.17
15932;BME280;8065;49.520;11.284;2023-02-08T04:35:15;99575.88;;;-1.58;68.49
15932;BME280;8065;49.520;11.284;2023-02-08T04:37:41;99574.44;;;-1.40;68.03
15932;BME280;8065;49.520;11.284;2023-02-08T04:40:10;99579.22;;;-1.43;68.77
15932;BME280;8065;49.520;11.284;2023-02-08T04:42:36;99576.69;;;-1.37;68.02
15932;BME280;8065;49.520;11.284;2023-02-08T04:45:03;99576.81;;;-1.45;68.03
15932;BME280;8065;49.520;11.284;2023-02-08T04:47:30;99578.47;;;-1.37;67.94
15932;BME280;8065;49.520;11.284;2023-02-08T04:49:56;99576.88;;;-1.38;67.87
15932;BME280;8065;49.520;11.284;2023-02-08T04:52:23;99574.63;;;-1.41;67.49
15932;BME280;8065;49.520;11.284;2023-02-08T04:54:49;99580.47;;;-1.39;67.51
15932;BME280;8065;49.520;11.284;2023-02-08T04:57:17;99581.34;;;-1.53;68.19
15932;BME280;8065;49.520;11.284;2023-02-08T04:59:43;99582.91;;;-1.59;68.49
15932;BME280;8065;49.520;11.284;2023-02-08T05:02:10;99584.69;;;-1.59;68.13
15932;BME280;8065;49.520;11.284;2023-02-08T05:04:36;99579.25;;;-1.65;68.86
15932;BME280;8065;49.520;11.284;2023-02-08T05:07:03;99580.59;;;-1.69;68.80
15932;BME280;8065;49.520;11.284;2023-02-08T05:09:30;99573.84;;;-1.63;68.47
15932;BME280;8065;49.520;11.284;2023-02-08T05:11:56;99571.75;;;-1.74;68.98
15932;BME280;8065;49.520;11.284;2023-02-08T05:14:24;99572.50;;;-1.80;68.83
15932;BME280;8065;49.520;11.284;2023-02-08T05:16:50;99564.59;;;-1.66;68.38
15932;BME280;8065;49.520;11.284;2023-02-08T05:19:17;99565.59;;;-1.67;68.38
15932;BME280;8065;49.520;11.284;2023-02-08T05:21:43;99574.56;;;-1.76;68.67
15932;BME280;8065;49.520;11.284;2023-02-08T05:24:10;99574.16;;;-1.73;68.76
15932;BME280;8065;49.520;11.284;2023-02-08T05:26:37;99578.56;;;-1.73;69.21
15932;BME280;8065;49.520;11.284;2023-02-08T05:29:04;99581.84;;;-1.65;69.05
15932;BME280;8065;49.520;11.284;2023-02-08T05:31:32;99574.56;;;-1.76;68.99
15932;BME280;8065;49.520;11.284;2023-02-08T05:33:58;99570.06;;;-1.60;68.29
15932;BME280;8065;49.520;11.284;2023-02-08T05:36:25;99576.91;;;-1.81;69.10
15932;BME280;8065;49.520;11.284;2023-02-08T05:38:51;99562.47;;;-1.83;69.04
15932;BME280;8065;49.520;11.284;2023-02-08T05:41:18;99579.25;;;-1.65;77.04
15932;BME280;8065;49.520;11.284;2023-02-08T05:43:45;99571.91;;;-1.54;72.51
15932;BME280;8065;49.520;11.284;2023-02-08T05:46:12;99571.91;;;-1.54;71.11
15932;BME280;8065;49.520;11.284;2023-02-08T05:48:43;99567.88;;;-1.57;70.33
15932;BME280;8065;49.520;11.284;2023-02-08T05:51:09;99566.28;;;-1.58;69.52
15932;BME280;8065;49.520;11.284;2023-02-08T05:53:36;99571.91;;;-1.54;69.68
15932;BME280;8065;49.520;11.284;2023-02-08T05:56:03;99583.84;;;-1.67;69.31
15932;BME280;8065;49.520;11.284;2023-02-08T05:58:29;99583.41;;;-1.70;69.27
15932;BME280;8065;49.520;11.284;2023-02-08T06:00:56;99591.81;;;-1.75;69.16
15932;BME280;8065;49.520;11.284;2023-02-08T06:03:22;99591.66;;;-1.67;69.42
15932;BME280;8065;49.520;11.284;2023-02-08T06:05:50;99591.81;;;-1.75;69.56
15932;BME280;8065;49.520;11.284;2023-02-08T06:08:17;99585.72;;;-1.82;69.47
15932;BME280;8065;49.520;11.284;2023-02-08T06:10:47;99585.22;;;-1.92;69.40
15932;BME280;8065;49.520;11.284;2023-02-08T06:13:13;99582.59;;;-1.92;69.77
15932;BME280;8065;49.520;11.284;2023-02-08T06:15:40;99590.06;;;-1.89;69.95
15932;BME280;8065;49.520;11.284;2023-02-08T06:18:06;99594.47;;;-1.89;69.63
15932;BME280;8065;49.520;11.284;2023-02-08T06:20:33;99592.91;;;-1.84;69.44
15932;BME280;8065;49.520;11.284;2023-02-08T06:23:01;99592.16;;;-1.78;69.15
15932;BME280;8065;49.520;11.284;2023-02-08T06:25:28;99601.78;;;-1.78;68.93
15932;BME280;8065;49.520;11.284;2023-02-08T06:27:54;99600.59;;;-1.76;69.01
15932;BME280;8065;49.520;11.284;2023-02-08T06:30:21;99599.47;;;-1.88;69.11
15932;BME280;8065;49.520;11.284;2023-02-08T06:32:48;99604.22;;;-1.77;69.24
15932;BME280;8065;49.520;11.284;2023-02-08T06:35:14;99600.22;;;-1.73;68.69
15932;BME280;8065;49.520;11.284;2023-02-08T06:37:41;99603.34;;;-1.84;69.54
15932;BME280;8065;49.520;11.284;2023-02-08T06:40:09;99600.69;;;-2.05;69.86
15932;BME280;8065;49.520;11.284;2023-02-08T06:42:36;99602.94;;;-2.02;69.26
15932;BME280;8065;49.520;11.284;2023-02-08T06:45:02;99608.03;;;-1.94;69.58
15932;BME280;8065;49.520;11.284;2023-02-08T06:47:29;99608.66;;;-1.92;69.77
15932;BME280;8065;49.520;11.284;2023-02-08T06:49:56;99600.41;;;-1.95;70.14
15932;BME280;8065;49.520;11.284;2023-02-08T06:52:22;99610.13;;;-2.04;70.24
15932;BME280;8065;49.520;11.284;2023-02-08T06:54:49;99604.06;;;-1.90;69.99
15932;BME280;8065;49.520;11.284;2023-02-08T06:57:17;99609.34;;;-1.83;69.62
15932;BME280;8065;49.520;11.284;2023-02-08T06:59:44;99607.44;;;-1.75;69.85
15932;BME280;8065;49.520;11.284;2023-02-08T07:02:12;99606.00;;;-1.77;69.62
15932;BME280;8065;49.520;11.284;2023-02-08T07:04:38;99600.97;;;-1.79;70.04
15932;BME280;8065;49.520;11.284;2023-02-08T07:07:05;99606.56;;;-1.82;69.91
15932;BME280;8065;49.520;11.284;2023-02-08T07:09:32;99602.44;;;-1.70;70.17
15932;BME280;8065;49.520;11.284;2023-02-08T07:11:58;99605.81;;;-1.76;70.64
15932;BME280;8065;49.520;11.284;2023-02-08T07:14:30;99615.22;;;-1.53;69.80
15932;BME280;8065;49.520;11.284;2023-02-08T07:16:57;99612.81;;;-1.55;70.36
15932;BME280;8065;49.520;11.284;2023-02-08T07:19:23;99606.91;;;-1.42;69.80
15932;BME280;8065;49.520;11.284;2023-02-08T07:21:50;99610.25;;;-1.27;69.89
15932;BME280;8065;49.520;11.284;2023-02-08T07:24:17;99609.88;;;-1.24;69.18
15932;BME280;8065;49.520;11.284;2023-02-08T07:26:43;99603.03;;;-1.25;69.70
15932;BME280;8065;49.520;11.284;2023-02-08T07:29:09;99609.59;;;-1.08;69.43
15932;BME280;8065;49.520;11.284;2023-02-08T07:31:37;99601.16;;;-0.75;68.85
15932;BME280;8065;49.520;11.284;2023-02-08T07:34:04;99608.13;;;-0.89;68.42
15932;BME280;8065;49.520;11.284;2023-02-08T07:36:30;99600.06;;;-0.59;68.25
15932;BME280;8065;49.520;11.284;2023-02-08T07:38:57;99608.75;;;-0.46;68.22
15932;BME280;8065;49.520;11.284;2023-02-08T07:41:23;99603.97;;;-0.42;67.53
15932;BME280;8065;49.520;11.284;2023-02-08T07:43:50;99610.84;;;-0.28;67.64
15932;BME280;8065;49.520;11.284;2023-02-08T07:46:18;99603.25;;;-0.16;67.39
15932;BME280;8065;49.520;11.284;2023-02-08T07:48:46;99603.69;;;0.00;67.46
15932;BME280;8065;49.520;11.284;2023-02-08T07:51:14;99605.31;;;-0.05;66.95
15932;BME280;8065;49.520;11.284;2023-02-08T07:53:40;99605.78;;;0.31;66.36
15932;BME280;8065;49.520;11.284;2023-02-08T07:56:07;99596.13;;;0.32;66.17
15932;BME280;8065;49.520;11.284;2023-02-08T07:58:34;99599.56;;;0.46;65.89
15932;BME280;8065;49.520;11.284;2023-02-08T08:01:01;99592.56;;;0.79;65.15
15932;BME280;8065;49.520;11.284;2023-02-08T08:03:27;99597.13;;;1.17;64.76
15932;BME280;8065;49.520;11.284;2023-02-08T08:05:55;99591.59;;;1.51;63.99
15932;BME280;8065;49.520;11.284;2023-02-08T08:08:22;99594.41;;;1.56;63.76
15932;BME280;8065;49.520;11.284;2023-02-08T08:10:48;99594.97;;;2.10;62.29
15932;BME280;8065;49.520;11.284;2023-02-08T08:13:15;99593.88;;;1.86;61.70
15932;BME280;8065;49.520;11.284;2023-02-08T08:15:41;99595.00;;;2.03;60.92
15932;BME280;8065;49.520;11.284;2023-02-08T08:18:08;99593.19;;;2.04;60.96
15932;BME280;8065;49.520;11.284;2023-02-08T08:20:34;99587.06;;;2.48;60.50
15932;BME280;8065;49.520;11.284;2023-02-08T08:23:02;99583.69;;;2.66;58.97
15932;BME280;8065;49.520;11.284;2023-02-08T08:25:29;99581.25;;;3.14;60.03
15932;BME280;8065;49.520;11.284;2023-02-08T08:27:56;99589.38;;;2.87;57.76
15932;BME280;8065;49.520;11.284;2023-02-08T08:30:23;99589.00;;;3.27;58.48
15932;BME280;8065;49.520;11.284;2023-02-08T08:32:49;99589.84;;;3.57;56.72
15932;BME280;8065;49.520;11.284;2023-02-08T08:35:16;99585.72;;;3.32;56.68
15932;BME280;8065;49.520;11.284;2023-02-08T08:37:42;99586.25;;;3.40;56.24
15932;BME280;8065;49.520;11.284;2023-02-08T08:40:10;99581.38;;;3.74;56.86
15932;BME280;8065;49.520;11.284;2023-02-08T08:42:37;99572.94;;;4.02;56.25
15932;BME280;8065;49.520;11.284;2023-02-08T08:45:06;99584.66;;;3.69;56.31
15932;BME280;8065;49.520;11.284;2023-02-08T08:47:33;99574.78;;;3.83;55.87
15932;BME280;8065;49.520;11.284;2023-02-08T08:49:59;99581.22;;;3.87;54.95
15932;BME280;8065;49.520;11.284;2023-02-08T08:52:26;99577.19;;;3.84;55.08
15932;BME280;8065;49.520;11.284;2023-02-08T08:54:52;99570.53;;;4.00;54.53
15932;BME280;8065;49.520;11.284;2023-02-08T08:57:20;99566.88;;;4.01;54.18
15932;BME280;8065;49.520;11.284;2023-02-08T08:59:46;99560.94;;;4.59;54.29
15932;BME280;8065;49.520;11.284;2023-02-08T09:02:13;99553.66;;;5.59;53.82
15932;BME280;8065;49.520;11.284;2023-02-08T09:04:40;99549.00;;;5.90;52.55
15932;BME280;8065;49.520;11.284;2023-02-08T09:07:07;99546.03;;;5.35;52.14
15932;BME280;8065;49.520;11.284;2023-02-08T09:09:35;99548.31;;;5.83;51.54
15932;BME280;8065;49.520;11.284;2023-02-08T09:12:01;99557.25;;;5.82;51.34
15932;BME280;8065;49.520;11.284;2023-02-08T09:14:29;99561.97;;;6.08;51.08
15932;BME280;8065;49.520;11.284;2023-02-08T09:16:56;99557.81;;;6.12;50.67
15932;BME280;8065;49.520;11.284;2023-02-08T09:19:23;99559.75;;;6.17;50.48
15932;BME280;8065;49.520;11.284;2023-02-08T09:21:49;99577.00;;;6.08;50.65
15932;BME280;8065;49.520;11.284;2023-02-08T09:24:16;99576.75;;;5.81;49.70
15932;BME280;8065;49.520;11.284;2023-02-08T09:26:43;99577.03;;;6.24;49.92
15932;BME280;8065;49.520;11.284;2023-02-08T09:29:10;99568.81;;;7.05;49.70
15932;BME280;8065;49.520;11.284;2023-02-08T09:31:38;99572.38;;;6.15;49.42
15932;BME280;8065;49.520;11.284;2023-02-08T09:34:06;99575.81;;;6.15;49.32
15932;BME280;8065;49.520;11.284;2023-02-08T09:36:34;99583.50;;;5.88;50.50
15932;BME280;8065;49.520;11.284;2023-02-08T09:39:05;99580.41;;;6.37;49.22
15932;BME280;8065;49.520;11.284;2023-02-08T09:41:41;99581.75;;;6.22;50.09
15932;BME280;8065;49.520;11.284;2023-02-08T09:44:16;99574.38;;;6.86;48.19
15932;BME280;8065;49.520;11.284;2023-02-08T09:46:51;99575.34;;;6.80;48.67
15932;BME280;8065;49.520;11.284;2023-02-08T09:49:23;99580.91;;;7.01;48.61
15932;BME280;8065;49.520;11.284;2023-02-08T09:51:55;99580.47;;;6.70;48.02
15932;BME280;8065;49.520;11.284;2023-02-08T09:54:28;99573.25;;;6.82;47.91
15932;BME280;8065;49.520;11.284;2023-02-08T09:56:56;99578.13;;;6.57;48.37
15932;BME280;8065;49.520;11.284;2023-02-08T09:59:27;99568.63;;;7.72;47.35
15932;BME280;8065;49.520;11.284;2023-02-08T10:01:59;99560.06;;;7.43;47.13
15932;BME280;8065;49.520;11.284;2023-02-08T10:04:35;99558.69;;;6.63;47.40
15932;BME280;8065;49.520;11.284;2023-02-08T10:07:03;99558.53;;;7.08;46.86
15932;BME280;8065;49.520;11.284;2023-02-08T10:09:29;99557.78;;;7.30;47.52
15932;BME280;8065;49.520;11.284;2023-02-08T10:12:05;99556.75;;;6.42;47.97
15932;BME280;8065;49.520;11.284;2023-02-08T10:14:47;99557.88;;;6.79;47.21
15932;BME280;8065;49.520;11.284;2023-02-08T10:17:56;99556.25;;;6.95;47.08
15932;BME280;8065;49.520;11.284;2023-02-08T10:20:35;99542.84;;;7.89;46.11
15932;BME280;8065;49.520;11.284;2023-02-08T10:23:16;99546.72;;;7.54;46.15
15932;BME280;8065;49.520;11.284;2023-02-08T10:26:05;99538.22;;;8.01;45.55
15932;BME280;8065;49.520;11.284;2023-02-08T10:28:51;99532.94;;;7.31;46.33
15932;BME280;8065;49.520;11.284;2023-02-08T10:31:31;99530.72;;;7.66;45.92
15932;BME280;8065;49.520;11.284;2023-02-08T10:34:03;99535.91;;;7.83;45.86
15932;BME280;8065;49.520;11.284;2023-02-08T10:36:36;99528.72;;;8.05;44.67
15932;BME280;8065;49.520;11.284;2023-02-08T10:39:15;99532.31;;;8.48;44.89
15932;BME280;8065;49.520;11.284;2023-02-08T10:41:43;99524.19;;;8.60;46.20
15932;BME280;8065;49.520;11.284;2023-02-08T10:44:18;99518.94;;;8.65;45.18
15932;BME280;8065;49.520;11.284;2023-02-08T10:46:49;99516.72;;;8.25;46.74
15932;BME280;8065;49.520;11.284;2023-02-08T10:49:21;99510.53;;;7.87;45.57
15932;BME280;8065;49.520;11.284;2023-02-08T10:51:53;99507.59;;;8.37;45.58
15932;BME280;8065;49.520;11.284;2023-02-08T10:54:19;99502.44;;;8.52;44.31
15932;BME280;8065;49.520;11.284;2023-02-08T10:56:47;99494.16;;;9.43;44.89
15932;BME280;8065;49.520;11.284;2023-02-08T10:59:19;99489.91;;;9.42;43.88
15932;BME280;8065;49.520;11.284;2023-02-08T11:01:47;99498.47;;;7.96;44.90
15932;BME280;8065;49.520;11.284;2023-02-08T11:04:15;99488.25;;;8.10;45.70
15932;BME280;8065;49.520;11.284;2023-02-08T11:06:44;99497.44;;;7.70;45.78
15932;BME280;8065;49.520;11.284;2023-02-08T11:09:23;99491.56;;;7.95;45.94
15932;BME280;8065;49.520;11.284;2023-02-08T11:11:50;99489.31;;;8.78;45.07
15932;BME280;8065;49.520;11.284;2023-02-08T11:14:19;99489.97;;;7.94;45.46
15932;BME280;8065;49.520;11.284;2023-02-08T11:16:49;99486.75;;;8.46;45.93
15932;BME280;8065;49.520;11.284;2023-02-08T11:19:20;99487.56;;;7.93;46.19
15932;BME280;8065;49.520;11.284;2023-02-08T11:21:50;99488.91;;;7.95;46.14
15932;BME280;8065;49.520;11.284;2023-02-08T11:24:26;99474.22;;;8.78;44.94
15932;BME280;8065;49.520;11.284;2023-02-08T11:26:53;99477.28;;;8.55;44.99
15932;BME280;8065;49.520;11.284;2023-02-08T11:29:23;99475.94;;;8.52;45.13
15932;BME280;8065;49.520;11.284;2023-02-08T11:31:57;99469.16;;;8.77;44.72
15932;BME280;8065;49.520;11.284;2023-02-08T11:34:24;99480.56;;;8.35;44.98
15932;BME280;8065;49.520;11.284;2023-02-08T11:36:53;99474.50;;;8.40;44.87
15932;BME280;8065;49.520;11.284;2023-02-08T11:39:22;99470.56;;;8.90;45.31
15932;BME280;8065;49.520;11.284;2023-02-08T11:41:52;99469.75;;;8.42;44.72
15932;BME280;8065;49.520;11.284;2023-02-08T11:44:22;99458.78;;;8.65;44.70
15932;BME280;8065;49.520;11.284;2023-02-08T11:46:52;99443.50;;;8.82;44.25
15932;BME280;8065;49.520;11.284;2023-02-08T11:49:21;99439.13;;;8.24;44.66
15932;BME280;8065;49.520;11.284;2023-02-08T11:51:48;99438.09;;;8.67;43.83
15932;BME280;8065;49.520;11.284;2023-02-08T11:54:36;99437.03;;;9.20;43.45
15932;BME280;8065;49.520;11.284;2023-02-08T11:57:13;99432.13;;;10.00;43.37
15932;BME280;8065;49.520;11.284;2023-02-08T11:59:41;99434.63;;;9.14;43.63
15932;BME280;8065;49.520;11.284;2023-02-08T12:02:34;99418.59;;;10.02;42.67
15932;BME280;8065;49.520;11.284;2023-02-08T12:05:03;99421.53;;;10.21;42.45
15932;BME280;8065;49.520;11.284;2023-02-08T12:07:55;99420.97;;;10.03;43.39
15932;BME280;8065;49.520;11.284;2023-02-08T12:10:52;99410.91;;;10.31;42.30
15932;BME280;8065;49.520;11.284;2023-02-08T12:13:47;99407.66;;;10.49;44.10
15932;BME280;8065;49.520;11.284;2023-02-08T12:22:25;99392.56;;;11.14;41.53
15932;BME280;8065;49.520;11.284;2023-02-08T12:25:01;99386.91;;;10.56;42.11
15932;BME280;8065;49.520;11.284;2023-02-08T12:27:38;99379.28;;;10.24;41.87
15932;BME280;8065;49.520;11.284;2023-02-08T12:30:17;99371.31;;;10.04;42.20
15932;BME280;8065;49.520;11.284;2023-02-08T12:33:11;99359.47;;;10.71;41.57
15932;BME280;8065;49.520;11.284;2023-02-08T12:36:02;99357.25;;;9.88;41.53
15932;BME280;8065;49.520;11.284;2023-02-08T12:38:56;99357.78;;;9.75;41.63
15932;BME280;8065;49.520;11.284;2023-02-08T12:41:54;99335.47;;;9.76;41.33
15932;BME280;8065;49.520;11.284;2023-02-08T12:44:34;99341.03;;;9.29;42.80
15932;BME280;8065;49.520;11.284;2023-02-08T12:47:13;99340.50;;;9.98;42.24
15932;BME280;8065;49.520;11.284;2023-02-08T12:49:51;99339.16;;;9.14;42.75
15932;BME280;8065;49.520;11.284;2023-02-08T12:52:28;99331.25;;;9.49;42.07
15932;BME280;8065;49.520;11.284;2023-02-08T12:55:00;99339.00;;;8.63;42.92
15932;BME280;8065;49.520;11.284;2023-02-08T12:57:29;99333.59;;;9.20;42.99
15932;BME280;8065;49.520;11.284;2023-02-08T13:00:01;99324.28;;;9.03;43.08
15932;BME280;8065;49.520;11.284;2023-02-08T13:02:33;99327.97;;;8.97;43.54
15932;BME280;8065;49.520;11.284;2023-02-08T13:05:12;99327.44;;;9.00;43.29
15932;BME280;8065;49.520;11.284;2023-02-08T13:07:42;99334.19;;;8.50;44.46
15932;BME280;8065;49.520;11.284;2023-02-08T13:10:17;99328.56;;;7.99;44.44
15932;BME280;8065;49.520;11.284;2023-02-08T13:12:51;99330.72;;;9.37;43.54
15932;BME280;8065;49.520;11.284;2023-02-08T13:15:24;99323.75;;;9.01;44.14
15932;BME280;8065;49.520;11.284;2023-02-08T13:17:56;99325.38;;;9.17;43.44
15932;BME280;8065;49.520;11.284;2023-02-08T13:20:29;99323.53;;;9.38;42.35
15932;BME280;8065;49.520;11.284;2023-02-08T13:23:01;99320.56;;;8.99;42.93
15932;BME280;8065;49.520;11.284;2023-02-08T13:25:30;99318.72;;;9.14;42.96
15932;BME280;8065;49.520;11.284;2023-02-08T13:28:01;99319.25;;;8.34;43.69
15932;BME280;8065;49.520;11.284;2023-02-08T13:30:30;99324.69;;;8.64;43.09
15932;BME280;8065;49.520;11.284;2023-02-08T13:33:00;99320.78;;;8.92;44.13